sensor_id;sensor_type;location;lat;lon;timestamp;P1;durP1;ratioP1;P2;durP2;ratioP2
12840;SDS011;6487;48.626;12.486;2023-04-03T00:02:19;4.40;;;3.13;;
12840;SDS011;6487;48.626;12.486;2023-04-03T00:04:48;3.50;;;3.20;;
12840;SDS011;6487;48.626;12.486;2023-04-03T00:07:17;3.40;;;3.10;;
12840;SDS011;6487;48.626;12.486;2023-04-03T00:09:47;3.90;;;3.40;;
12840;SDS011;6487;48.626;12.486;2023-04-03T00:12:15;5.43;;;2.97;;
12840;SDS011;6487;48.626;12.486;2023-04-03T00:14:44;3.53;;;3.13;;
12840;SDS011;6487;48.626;12.486;2023-04-03T00:17:12;3.07;;;2.80;;
12840;SDS011;6487;48.626;12.486;2023-04-03T00:19:40;3.47;;;2.87;;
12840;SDS011;6487;48.626;12.486;2023-04-03T00:22:09;3.87;;;3.47;;
12840;SDS011;6487;48.626;12.486;2023-04-03T00:24:37;4.57;;;3.37;;
12840;SDS011;6487;48.626;12.486;2023-04-03T00:27:07;4.10;;;3.70;;
12840;SDS011;6487;48.626;12.486;2023-04-03T00:29:35;3.60;;;3.30;;
12840;SDS011;6487;48.626;12.486;2023-04-03T00:32:03;3.60;;;3.30;;
12840;SDS011;6487;48.626;12.486;2023-04-03T00:34:37;3.80;;;3.50;;
12840;SDS011;6487;48.626;12.486;2023-04-03T00:37:06;4.50;;;3.50;;
12840;SDS011;6487;48.626;12.486;2023-04-03T00:39:34;3.53;;;3.20;;
12840;SDS011;6487;48.626;12.486;2023-04-03T00:42:02;3.53;;;3.23;;
12840;SDS011;6487;48.626;12.486;2023-04-03T00:48:09;4.80;;;3.30;;
12840;SDS011;6487;48.626;12.486;2023-04-03T00:50:41;5.03;;;3.57;;
12840;SDS011;6487;48.626;12.486;2023-04-03T00:53:12;3.77;;;3.13;;
12840;SDS011;6487;48.626;12.486;2023-04-03T00:55:44;3.20;;;2.90;;
12840;SDS011;6487;48.626;12.486;2023-04-03T00:58:15;3.27;;;2.97;;
12840;SDS011;6487;48.626;12.486;2023-04-03T01:00:46;3.93;;;3.20;;
12840;SDS011;6487;48.626;12.486;2023-04-03T01:03:23;3.27;;;2.97;;
12840;SDS011;6487;48.626;12.486;2023-04-03T01:05:52;3.57;;;2.87;;
12840;SDS011;6487;48.626;12.486;2023-04-03T01:08:21;3.60;;;3.20;;
12840;SDS011;6487;48.626;12.486;2023-04-03T01:10:49;3.03;;;2.73;;
12840;SDS011;6487;48.626;12.486;2023-04-03T01:13:19;4.63;;;2.70;;
12840;SDS011;6487;48.626;12.486;2023-04-03T01:15:52;2.50;;;2.30;;
12840;SDS011;6487;48.626;12.486;2023-04-03T01:18:21;3.03;;;2.73;;
12840;SDS011;6487;48.626;12.486;2023-04-03T01:23:58;3.43;;;2.83;;
12840;SDS011;6487;48.626;12.486;2023-04-03T01:26:37;2.90;;;2.50;;
12840;SDS011;6487;48.626;12.486;2023-04-03T01:29:06;2.77;;;2.57;;
12840;SDS011;6487;48.626;12.486;2023-04-03T01:31:45;2.97;;;2.60;;
12840;SDS011;6487;48.626;12.486;2023-04-03T01:34:19;3.57;;;2.50;;
12840;SDS011;6487;48.626;12.486;2023-04-03T01:36:47;3.10;;;2.50;;
12840;SDS011;6487;48.626;12.486;2023-04-03T01:39:16;3.03;;;2.73;;
12840;SDS011;6487;48.626;12.486;2023-04-03T01:41:45;2.87;;;2.57;;
12840;SDS011;6487;48.626;12.486;2023-04-03T01:44:13;3.07;;;2.70;;
12840;SDS011;6487;48.626;12.486;2023-04-03T01:46:49;3.10;;;2.80;;
12840;SDS011;6487;48.626;12.486;2023-04-03T01:49:17;3.37;;;2.80;;
12840;SDS011;6487;48.626;12.486;2023-04-03T01:51:45;2.47;;;2.27;;
12840;SDS011;6487;48.626;12.486;2023-04-03T01:54:16;4.17;;;2.50;;
12840;SDS011;6487;48.626;12.486;2023-04-03T01:56:45;2.73;;;2.40;;
12840;SDS011;6487;48.626;12.486;2023-04-03T01:59:13;5.77;;;3.03;;
12840;SDS011;6487;48.626;12.486;2023-04-03T02:01:43;3.60;;;2.90;;
12840;SDS011;6487;48.626;12.486;2023-04-03T02:04:13;3.70;;;3.03;;
12840;SDS011;6487;48.626;12.486;2023-04-03T02:06:42;2.93;;;2.63;;
12840;SDS011;6487;48.626;12.486;2023-04-03T02:09:10;3.23;;;2.93;;
12840;SDS011;6487;48.626;12.486;2023-04-03T02:11:38;3.40;;;2.60;;
12840;SDS011;6487;48.626;12.486;2023-04-03T02:14:07;5.90;;;2.40;;
12840;SDS011;6487;48.626;12.486;2023-04-03T02:16:35;3.83;;;2.93;;
12840;SDS011;6487;48.626;12.486;2023-04-03T02:19:07;3.77;;;3.20;;
12840;SDS011;6487;48.626;12.486;2023-04-03T02:21:37;3.40;;;2.60;;
12840;SDS011;6487;48.626;12.486;2023-04-03T02:24:05;3.37;;;2.77;;
12840;SDS011;6487;48.626;12.486;2023-04-03T02:26:33;5.03;;;3.00;;
12840;SDS011;6487;48.626;12.486;2023-04-03T02:29:02;3.20;;;2.90;;
12840;SDS011;6487;48.626;12.486;2023-04-03T02:31:30;5.80;;;3.00;;
12840;SDS011;6487;48.626;12.486;2023-04-03T02:34:04;3.10;;;2.67;;
12840;SDS011;6487;48.626;12.486;2023-04-03T02:36:32;3.20;;;2.83;;
12840;SDS011;6487;48.626;12.486;2023-04-03T02:39:03;7.67;;;3.33;;
12840;SDS011;6487;48.626;12.486;2023-04-03T02:41:31;3.13;;;2.60;;
12840;SDS011;6487;48.626;12.486;2023-04-03T02:44:02;3.90;;;3.20;;
12840;SDS011;6487;48.626;12.486;2023-04-03T02:46:34;3.70;;;2.80;;
12840;SDS011;6487;48.626;12.486;2023-04-03T02:49:02;3.70;;;2.40;;
12840;SDS011;6487;48.626;12.486;2023-04-03T02:51:31;3.07;;;2.50;;
12840;SDS011;6487;48.626;12.486;2023-04-03T02:54:04;4.20;;;3.20;;
12840;SDS011;6487;48.626;12.486;2023-04-03T02:56:32;3.87;;;3.00;;
12840;SDS011;6487;48.626;12.486;2023-04-03T02:59:01;4.17;;;3.33;;
12840;SDS011;6487;48.626;12.486;2023-04-03T03:01:30;3.40;;;2.93;;
12840;SDS011;6487;48.626;12.486;2023-04-03T03:03:59;3.70;;;2.77;;
12840;SDS011;6487;48.626;12.486;2023-04-03T03:06:30;3.97;;;2.80;;
12840;SDS011;6487;48.626;12.486;2023-04-03T03:08:58;4.30;;;2.80;;
12840;SDS011;6487;48.626;12.486;2023-04-03T03:11:28;3.53;;;2.83;;
12840;SDS011;6487;48.626;12.486;2023-04-03T03:13:56;5.23;;;2.60;;
12840;SDS011;6487;48.626;12.486;2023-04-03T03:16:25;3.37;;;2.70;;
12840;SDS011;6487;48.626;12.486;2023-04-03T03:18:56;6.30;;;3.20;;
12840;SDS011;6487;48.626;12.486;2023-04-03T03:21:25;4.27;;;2.90;;
12840;SDS011;6487;48.626;12.486;2023-04-03T03:23:53;6.07;;;3.20;;
12840;SDS011;6487;48.626;12.486;2023-04-03T03:26:21;3.30;;;2.70;;
12840;SDS011;6487;48.626;12.486;2023-04-03T03:28:51;3.83;;;2.70;;
12840;SDS011;6487;48.626;12.486;2023-04-03T03:31:25;4.00;;;2.83;;
12840;SDS011;6487;48.626;12.486;2023-04-03T03:33:54;3.70;;;3.03;;
12840;SDS011;6487;48.626;12.486;2023-04-03T03:36:22;3.17;;;2.80;;
12840;SDS011;6487;48.626;12.486;2023-04-03T03:38:50;3.30;;;2.90;;
12840;SDS011;6487;48.626;12.486;2023-04-03T03:41:21;2.73;;;2.53;;
12840;SDS011;6487;48.626;12.486;2023-04-03T03:43:49;4.03;;;2.83;;
12840;SDS011;6487;48.626;12.486;2023-04-03T03:46:19;4.00;;;3.40;;
12840;SDS011;6487;48.626;12.486;2023-04-03T03:48:50;3.70;;;2.87;;
12840;SDS011;6487;48.626;12.486;2023-04-03T03:51:18;4.27;;;3.13;;
12840;SDS011;6487;48.626;12.486;2023-04-03T03:53:47;4.83;;;3.07;;
12840;SDS011;6487;48.626;12.486;2023-04-03T03:56:15;3.40;;;3.10;;
12840;SDS011;6487;48.626;12.486;2023-04-03T03:58:43;3.60;;;3.20;;
12840;SDS011;6487;48.626;12.486;2023-04-03T04:01:13;4.73;;;3.07;;
12840;SDS011;6487;48.626;12.486;2023-04-03T04:03:43;6.10;;;3.43;;
12840;SDS011;6487;48.626;12.486;2023-04-03T04:06:11;5.00;;;3.13;;
12840;SDS011;6487;48.626;12.486;2023-04-03T04:08:39;3.67;;;2.77;;
12840;SDS011;6487;48.626;12.486;2023-04-03T04:11:11;3.70;;;3.40;;
12840;SDS011;6487;48.626;12.486;2023-04-03T04:13:39;3.73;;;2.93;;
12840;SDS011;6487;48.626;12.486;2023-04-03T04:16:08;4.23;;;2.77;;
12840;SDS011;6487;48.626;12.486;2023-04-03T04:18:38;4.00;;;3.50;;
12840;SDS011;6487;48.626;12.486;2023-04-03T04:21:07;4.73;;;3.60;;
12840;SDS011;6487;48.626;12.486;2023-04-03T04:23:35;3.80;;;3.37;;
12840;SDS011;6487;48.626;12.486;2023-04-03T04:26:03;3.80;;;3.43;;
12840;SDS011;6487;48.626;12.486;2023-04-03T04:28:34;5.33;;;3.40;;
12840;SDS011;6487;48.626;12.486;2023-04-03T04:31:02;3.80;;;3.10;;
12840;SDS011;6487;48.626;12.486;2023-04-03T04:33:31;3.47;;;3.17;;
12840;SDS011;6487;48.626;12.486;2023-04-03T04:36:01;5.60;;;3.70;;
12840;SDS011;6487;48.626;12.486;2023-04-03T04:38:29;6.50;;;3.87;;
12840;SDS011;6487;48.626;12.486;2023-04-03T04:40:58;3.50;;;3.17;;
12840;SDS011;6487;48.626;12.486;2023-04-03T04:43:26;4.80;;;3.53;;
12840;SDS011;6487;48.626;12.486;2023-04-03T04:46:01;4.33;;;3.70;;
12840;SDS011;6487;48.626;12.486;2023-04-03T04:48:31;4.60;;;3.17;;
12840;SDS011;6487;48.626;12.486;2023-04-03T04:51:00;3.93;;;3.50;;
12840;SDS011;6487;48.626;12.486;2023-04-03T04:53:29;3.67;;;3.30;;
12840;SDS011;6487;48.626;12.486;2023-04-03T04:55:58;4.80;;;3.30;;
12840;SDS011;6487;48.626;12.486;2023-04-03T04:58:29;5.07;;;3.50;;
12840;SDS011;6487;48.626;12.486;2023-04-03T05:00:58;4.33;;;3.77;;
12840;SDS011;6487;48.626;12.486;2023-04-03T05:03:34;5.27;;;3.97;;
12840;SDS011;6487;48.626;12.486;2023-04-03T05:06:04;5.93;;;4.00;;
12840;SDS011;6487;48.626;12.486;2023-04-03T05:08:33;6.57;;;4.20;;
12840;SDS011;6487;48.626;12.486;2023-04-03T05:11:01;4.23;;;3.83;;
12840;SDS011;6487;48.626;12.486;2023-04-03T05:13:30;4.60;;;3.83;;
12840;SDS011;6487;48.626;12.486;2023-04-03T05:15:58;7.80;;;3.87;;
12840;SDS011;6487;48.626;12.486;2023-04-03T05:18:26;5.57;;;4.10;;
12840;SDS011;6487;48.626;12.486;2023-04-03T05:20:55;5.30;;;4.00;;
12840;SDS011;6487;48.626;12.486;2023-04-03T05:23:25;5.17;;;4.40;;
12840;SDS011;6487;48.626;12.486;2023-04-03T05:25:53;4.53;;;4.00;;
12840;SDS011;6487;48.626;12.486;2023-04-03T05:28:21;5.37;;;4.07;;
12840;SDS011;6487;48.626;12.486;2023-04-03T05:30:52;7.70;;;4.60;;
12840;SDS011;6487;48.626;12.486;2023-04-03T05:33:22;9.10;;;4.70;;
12840;SDS011;6487;48.626;12.486;2023-04-03T05:35:52;4.53;;;4.10;;
12840;SDS011;6487;48.626;12.486;2023-04-03T05:38:21;5.37;;;4.47;;
12840;SDS011;6487;48.626;12.486;2023-04-03T05:40:51;7.60;;;4.77;;
12840;SDS011;6487;48.626;12.486;2023-04-03T05:43:19;4.57;;;4.13;;
12840;SDS011;6487;48.626;12.486;2023-04-03T05:45:47;7.03;;;4.47;;
12840;SDS011;6487;48.626;12.486;2023-04-03T05:48:16;5.20;;;4.10;;
12840;SDS011;6487;48.626;12.486;2023-04-03T05:50:44;5.57;;;4.10;;
12840;SDS011;6487;48.626;12.486;2023-04-03T05:53:15;5.50;;;4.10;;
12840;SDS011;6487;48.626;12.486;2023-04-03T05:55:50;11.13;;;4.37;;
12840;SDS011;6487;48.626;12.486;2023-04-03T05:58:20;5.60;;;4.53;;
12840;SDS011;6487;48.626;12.486;2023-04-03T06:00:51;8.67;;;4.60;;
12840;SDS011;6487;48.626;12.486;2023-04-03T06:03:20;6.70;;;4.10;;
12840;SDS011;6487;48.626;12.486;2023-04-03T06:05:48;7.20;;;4.30;;
12840;SDS011;6487;48.626;12.486;2023-04-03T06:08:17;8.23;;;4.80;;
12840;SDS011;6487;48.626;12.486;2023-04-03T06:10:45;8.20;;;4.80;;
12840;SDS011;6487;48.626;12.486;2023-04-03T06:13:15;6.80;;;4.30;;
12840;SDS011;6487;48.626;12.486;2023-04-03T06:15:43;5.57;;;4.47;;
12840;SDS011;6487;48.626;12.486;2023-04-03T06:18:14;5.73;;;3.97;;
12840;SDS011;6487;48.626;12.486;2023-04-03T06:20:43;7.00;;;4.80;;
12840;SDS011;6487;48.626;12.486;2023-04-03T06:23:11;6.47;;;4.10;;
12840;SDS011;6487;48.626;12.486;2023-04-03T06:25:39;6.20;;;3.87;;
12840;SDS011;6487;48.626;12.486;2023-04-03T06:28:08;5.93;;;4.80;;
12840;SDS011;6487;48.626;12.486;2023-04-03T06:30:38;6.80;;;4.90;;
12840;SDS011;6487;48.626;12.486;2023-04-03T06:33:06;5.30;;;4.73;;
12840;SDS011;6487;48.626;12.486;2023-04-03T06:35:37;5.40;;;3.87;;
12840;SDS011;6487;48.626;12.486;2023-04-03T06:38:06;5.10;;;4.30;;
12840;SDS011;6487;48.626;12.486;2023-04-03T06:40:35;5.57;;;4.57;;
12840;SDS011;6487;48.626;12.486;2023-04-03T06:43:04;5.20;;;3.83;;
12840;SDS011;6487;48.626;12.486;2023-04-03T06:45:33;6.53;;;4.40;;
12840;SDS011;6487;48.626;12.486;2023-04-03T06:48:04;6.93;;;4.70;;
12840;SDS011;6487;48.626;12.486;2023-04-03T06:50:33;4.80;;;4.30;;
12840;SDS011;6487;48.626;12.486;2023-04-03T06:53:01;5.10;;;3.50;;
12840;SDS011;6487;48.626;12.486;2023-04-03T06:55:30;5.00;;;4.20;;
12840;SDS011;6487;48.626;12.486;2023-04-03T06:57:58;4.87;;;4.13;;
12840;SDS011;6487;48.626;12.486;2023-04-03T07:00:26;6.53;;;4.40;;
12840;SDS011;6487;48.626;12.486;2023-04-03T07:02:55;6.00;;;4.13;;
12840;SDS011;6487;48.626;12.486;2023-04-03T07:05:25;7.23;;;4.13;;
12840;SDS011;6487;48.626;12.486;2023-04-03T07:07:53;4.77;;;3.73;;
12840;SDS011;6487;48.626;12.486;2023-04-03T07:10:22;4.33;;;3.80;;
12840;SDS011;6487;48.626;12.486;2023-04-03T07:12:50;6.97;;;3.87;;
12840;SDS011;6487;48.626;12.486;2023-04-03T07:15:18;5.63;;;4.53;;
12840;SDS011;6487;48.626;12.486;2023-04-03T07:17:47;7.70;;;4.23;;
12840;SDS011;6487;48.626;12.486;2023-04-03T07:20:15;7.07;;;4.37;;
12840;SDS011;6487;48.626;12.486;2023-04-03T07:22:45;10.37;;;4.00;;
12840;SDS011;6487;48.626;12.486;2023-04-03T07:25:13;6.87;;;4.03;;
12840;SDS011;6487;48.626;12.486;2023-04-03T07:27:42;9.90;;;4.43;;
12840;SDS011;6487;48.626;12.486;2023-04-03T07:30:11;6.87;;;3.97;;
12840;SDS011;6487;48.626;12.486;2023-04-03T07:32:40;6.70;;;3.50;;
12840;SDS011;6487;48.626;12.486;2023-04-03T07:35:09;4.30;;;3.60;;
12840;SDS011;6487;48.626;12.486;2023-04-03T07:37:37;4.83;;;3.70;;
12840;SDS011;6487;48.626;12.486;2023-04-03T07:40:07;6.33;;;4.10;;
12840;SDS011;6487;48.626;12.486;2023-04-03T07:42:39;4.80;;;3.30;;
12840;SDS011;6487;48.626;12.486;2023-04-03T07:45:07;3.57;;;2.87;;
12840;SDS011;6487;48.626;12.486;2023-04-03T07:47:36;4.67;;;3.90;;
12840;SDS011;6487;48.626;12.486;2023-04-03T07:50:05;4.00;;;2.47;;
12840;SDS011;6487;48.626;12.486;2023-04-03T07:52:35;3.37;;;2.80;;
12840;SDS011;6487;48.626;12.486;2023-04-03T07:55:04;3.73;;;3.00;;
12840;SDS011;6487;48.626;12.486;2023-04-03T07:57:34;3.73;;;2.70;;
12840;SDS011;6487;48.626;12.486;2023-04-03T08:00:04;5.37;;;2.67;;
12840;SDS011;6487;48.626;12.486;2023-04-03T08:02:35;4.60;;;3.20;;
12840;SDS011;6487;48.626;12.486;2023-04-03T08:05:03;4.53;;;3.07;;
12840;SDS011;6487;48.626;12.486;2023-04-03T08:07:33;4.73;;;2.90;;
12840;SDS011;6487;48.626;12.486;2023-04-03T08:10:01;4.27;;;2.53;;
12840;SDS011;6487;48.626;12.486;2023-04-03T08:12:30;3.17;;;2.00;;
12840;SDS011;6487;48.626;12.486;2023-04-03T08:15:00;2.70;;;2.07;;
12840;SDS011;6487;48.626;12.486;2023-04-03T08:17:29;3.20;;;2.37;;
12840;SDS011;6487;48.626;12.486;2023-04-03T08:19:57;3.03;;;2.30;;
12840;SDS011;6487;48.626;12.486;2023-04-03T08:22:25;4.33;;;2.27;;
12840;SDS011;6487;48.626;12.486;2023-04-03T08:24:54;2.80;;;1.70;;
12840;SDS011;6487;48.626;12.486;2023-04-03T08:27:25;3.83;;;2.17;;
12840;SDS011;6487;48.626;12.486;2023-04-03T08:29:53;3.40;;;2.17;;
12840;SDS011;6487;48.626;12.486;2023-04-03T08:32:24;4.97;;;2.10;;
12840;SDS011;6487;48.626;12.486;2023-04-03T08:34:53;3.30;;;1.93;;
12840;SDS011;6487;48.626;12.486;2023-04-03T08:37:21;4.70;;;2.33;;
12840;SDS011;6487;48.626;12.486;2023-04-03T08:39:50;3.27;;;2.27;;
12840;SDS011;6487;48.626;12.486;2023-04-03T08:42:23;3.07;;;1.87;;
12840;SDS011;6487;48.626;12.486;2023-04-03T08:45:09;2.83;;;2.10;;
12840;SDS011;6487;48.626;12.486;2023-04-03T08:47:44;4.07;;;2.67;;
12840;SDS011;6487;48.626;12.486;2023-04-03T08:50:20;3.33;;;2.03;;
12840;SDS011;6487;48.626;12.486;2023-04-03T08:52:51;3.37;;;2.20;;
12840;SDS011;6487;48.626;12.486;2023-04-03T08:55:24;3.40;;;2.20;;
12840;SDS011;6487;48.626;12.486;2023-04-03T08:57:57;4.17;;;2.00;;
12840;SDS011;6487;48.626;12.486;2023-04-03T09:00:30;3.77;;;2.00;;
12840;SDS011;6487;48.626;12.486;2023-04-03T09:03:11;3.60;;;2.13;;
12840;SDS011;6487;48.626;12.486;2023-04-03T09:05:42;3.93;;;1.70;;
12840;SDS011;6487;48.626;12.486;2023-04-03T09:08:20;3.03;;;2.10;;
12840;SDS011;6487;48.626;12.486;2023-04-03T09:10:55;3.27;;;2.00;;
12840;SDS011;6487;48.626;12.486;2023-04-03T09:13:39;4.10;;;2.17;;
12840;SDS011;6487;48.626;12.486;2023-04-03T09:16:20;5.00;;;1.70;;
12840;SDS011;6487;48.626;12.486;2023-04-03T09:19:00;2.63;;;2.00;;
12840;SDS011;6487;48.626;12.486;2023-04-03T09:21:41;4.33;;;2.10;;
12840;SDS011;6487;48.626;12.486;2023-04-03T09:24:10;2.53;;;1.57;;
12840;SDS011;6487;48.626;12.486;2023-04-03T09:26:42;2.60;;;1.93;;
12840;SDS011;6487;48.626;12.486;2023-04-03T09:29:14;3.83;;;2.20;;
12840;SDS011;6487;48.626;12.486;2023-04-03T09:31:48;2.30;;;1.30;;
12840;SDS011;6487;48.626;12.486;2023-04-03T09:34:22;2.73;;;2.17;;
12840;SDS011;6487;48.626;12.486;2023-04-03T09:36:54;3.03;;;1.60;;
12840;SDS011;6487;48.626;12.486;2023-04-03T09:39:28;2.67;;;1.60;;
12840;SDS011;6487;48.626;12.486;2023-04-03T09:41:58;3.63;;;1.70;;
12840;SDS011;6487;48.626;12.486;2023-04-03T09:44:30;2.17;;;1.57;;
12840;SDS011;6487;48.626;12.486;2023-04-03T09:47:16;2.73;;;1.70;;
12840;SDS011;6487;48.626;12.486;2023-04-03T09:49:54;1.77;;;1.50;;
12840;SDS011;6487;48.626;12.486;2023-04-03T09:52:46;2.80;;;1.80;;
12840;SDS011;6487;48.626;12.486;2023-04-03T09:55:19;2.70;;;1.67;;
12840;SDS011;6487;48.626;12.486;2023-04-03T09:57:53;2.70;;;1.37;;
12840;SDS011;6487;48.626;12.486;2023-04-03T10:00:23;3.27;;;1.47;;
12840;SDS011;6487;48.626;12.486;2023-04-03T10:02:55;3.03;;;1.70;;
12840;SDS011;6487;48.626;12.486;2023-04-03T10:05:28;2.43;;;1.57;;
12840;SDS011;6487;48.626;12.486;2023-04-03T10:08:09;3.80;;;2.33;;
12840;SDS011;6487;48.626;12.486;2023-04-03T10:10:48;4.00;;;1.40;;
12840;SDS011;6487;48.626;12.486;2023-04-03T10:13:51;3.13;;;1.60;;
12840;SDS011;6487;48.626;12.486;2023-04-03T10:16:31;1.83;;;1.40;;
12840;SDS011;6487;48.626;12.486;2023-04-03T10:19:11;2.00;;;1.47;;
12840;SDS011;6487;48.626;12.486;2023-04-03T10:22:03;1.60;;;1.20;;
12840;SDS011;6487;48.626;12.486;2023-04-03T10:24:51;1.23;;;1.10;;
12840;SDS011;6487;48.626;12.486;2023-04-03T10:27:35;3.87;;;1.63;;
12840;SDS011;6487;48.626;12.486;2023-04-03T10:30:19;2.73;;;1.50;;
12840;SDS011;6487;48.626;12.486;2023-04-03T10:32:59;2.23;;;1.43;;
12840;SDS011;6487;48.626;12.486;2023-04-03T10:35:44;6.77;;;1.30;;
12840;SDS011;6487;48.626;12.486;2023-04-03T10:38:29;3.67;;;1.80;;
12840;SDS011;6487;48.626;12.486;2023-04-03T10:41:08;3.97;;;1.60;;
12840;SDS011;6487;48.626;12.486;2023-04-03T10:43:49;1.23;;;1.13;;
12840;SDS011;6487;48.626;12.486;2023-04-03T10:46:31;4.10;;;1.47;;
12840;SDS011;6487;48.626;12.486;2023-04-03T10:52:06;2.37;;;1.53;;
12840;SDS011;6487;48.626;12.486;2023-04-03T10:54:46;2.17;;;1.50;;
12840;SDS011;6487;48.626;12.486;2023-04-03T10:57:24;2.40;;;1.63;;
12840;SDS011;6487;48.626;12.486;2023-04-03T10:59:55;4.00;;;1.37;;
12840;SDS011;6487;48.626;12.486;2023-04-03T11:02:27;3.77;;;1.60;;
12840;SDS011;6487;48.626;12.486;2023-04-03T11:05:04;5.57;;;2.40;;
12840;SDS011;6487;48.626;12.486;2023-04-03T11:07:42;3.60;;;1.70;;
12840;SDS011;6487;48.626;12.486;2023-04-03T11:10:18;2.13;;;1.37;;
12840;SDS011;6487;48.626;12.486;2023-04-03T11:12:54;1.60;;;1.40;;
12840;SDS011;6487;48.626;12.486;2023-04-03T11:15:30;1.50;;;1.30;;
12840;SDS011;6487;48.626;12.486;2023-04-03T11:18:02;1.87;;;1.20;;
12840;SDS011;6487;48.626;12.486;2023-04-03T11:20:37;2.33;;;1.33;;
12840;SDS011;6487;48.626;12.486;2023-04-03T11:23:12;1.23;;;0.97;;
12840;SDS011;6487;48.626;12.486;2023-04-03T11:25:53;2.10;;;1.60;;
12840;SDS011;6487;48.626;12.486;2023-04-03T11:28:27;3.43;;;1.23;;
12840;SDS011;6487;48.626;12.486;2023-04-03T11:30:57;2.27;;;1.50;;
12840;SDS011;6487;48.626;12.486;2023-04-03T11:33:41;4.37;;;1.57;;
12840;SDS011;6487;48.626;12.486;2023-04-03T11:36:19;2.60;;;2.27;;
12840;SDS011;6487;48.626;12.486;2023-04-03T11:39:00;2.73;;;1.63;;
12840;SDS011;6487;48.626;12.486;2023-04-03T11:41:45;1.70;;;1.53;;
12840;SDS011;6487;48.626;12.486;2023-04-03T11:44:34;4.20;;;2.70;;
12840;SDS011;6487;48.626;12.486;2023-04-03T11:47:04;4.10;;;3.70;;
12840;SDS011;6487;48.626;12.486;2023-04-03T11:49:55;2.97;;;2.77;;
12840;SDS011;6487;48.626;12.486;2023-04-03T12:01:54;2.07;;;1.27;;
12840;SDS011;6487;48.626;12.486;2023-04-03T12:04:25;1.63;;;1.27;;
12840;SDS011;6487;48.626;12.486;2023-04-03T12:12:57;2.90;;;2.17;;
12840;SDS011;6487;48.626;12.486;2023-04-03T12:18:40;1.63;;;1.30;;
12840;SDS011;6487;48.626;12.486;2023-04-03T12:21:13;1.57;;;1.27;;
12840;SDS011;6487;48.626;12.486;2023-04-03T12:24:02;1.30;;;1.20;;
12840;SDS011;6487;48.626;12.486;2023-04-03T12:26:41;2.67;;;1.37;;
12840;SDS011;6487;48.626;12.486;2023-04-03T12:29:15;3.37;;;1.47;;
12840;SDS011;6487;48.626;12.486;2023-04-03T12:31:54;2.77;;;1.27;;
12840;SDS011;6487;48.626;12.486;2023-04-03T12:34:41;1.73;;;1.27;;
12840;SDS011;6487;48.626;12.486;2023-04-03T12:37:29;3.67;;;1.40;;
12840;SDS011;6487;48.626;12.486;2023-04-03T12:40:26;2.13;;;1.40;;
12840;SDS011;6487;48.626;12.486;2023-04-03T12:43:06;3.13;;;1.47;;
12840;SDS011;6487;48.626;12.486;2023-04-03T12:46:03;2.57;;;1.50;;
12840;SDS011;6487;48.626;12.486;2023-04-03T12:48:47;2.73;;;1.33;;
12840;SDS011;6487;48.626;12.486;2023-04-03T12:51:18;3.07;;;1.80;;
12840;SDS011;6487;48.626;12.486;2023-04-03T12:54:00;1.87;;;1.40;;
12840;SDS011;6487;48.626;12.486;2023-04-03T12:56:32;2.13;;;1.10;;
12840;SDS011;6487;48.626;12.486;2023-04-03T12:59:13;3.97;;;3.00;;
12840;SDS011;6487;48.626;12.486;2023-04-03T13:01:43;4.83;;;4.30;;
12840;SDS011;6487;48.626;12.486;2023-04-03T13:04:22;5.03;;;3.90;;
12840;SDS011;6487;48.626;12.486;2023-04-03T13:07:02;3.53;;;2.27;;
12840;SDS011;6487;48.626;12.486;2023-04-03T13:09:30;5.13;;;3.50;;
12840;SDS011;6487;48.626;12.486;2023-04-03T13:12:00;11.20;;;9.80;;
12840;SDS011;6487;48.626;12.486;2023-04-03T13:14:36;7.13;;;1.80;;
12840;SDS011;6487;48.626;12.486;2023-04-03T13:17:06;4.13;;;2.27;;
12840;SDS011;6487;48.626;12.486;2023-04-03T13:19:43;2.27;;;1.60;;
12840;SDS011;6487;48.626;12.486;2023-04-03T13:22:17;2.33;;;1.60;;
12840;SDS011;6487;48.626;12.486;2023-04-03T13:24:55;2.80;;;1.77;;
12840;SDS011;6487;48.626;12.486;2023-04-03T13:27:29;2.10;;;1.80;;
12840;SDS011;6487;48.626;12.486;2023-04-03T13:30:00;2.23;;;1.90;;
12840;SDS011;6487;48.626;12.486;2023-04-03T13:32:31;4.80;;;1.60;;
12840;SDS011;6487;48.626;12.486;2023-04-03T13:35:01;2.00;;;1.50;;
12840;SDS011;6487;48.626;12.486;2023-04-03T13:37:52;3.93;;;2.10;;
12840;SDS011;6487;48.626;12.486;2023-04-03T13:40:23;2.93;;;1.60;;
12840;SDS011;6487;48.626;12.486;2023-04-03T13:43:16;2.50;;;1.93;;
12840;SDS011;6487;48.626;12.486;2023-04-03T13:45:55;3.17;;;1.87;;
12840;SDS011;6487;48.626;12.486;2023-04-03T13:48:35;2.07;;;1.80;;
12840;SDS011;6487;48.626;12.486;2023-04-03T13:51:17;2.63;;;1.70;;
12840;SDS011;6487;48.626;12.486;2023-04-03T13:53:50;2.67;;;1.40;;
12840;SDS011;6487;48.626;12.486;2023-04-03T13:56:24;2.63;;;1.60;;
12840;SDS011;6487;48.626;12.486;2023-04-03T13:58:59;2.30;;;1.80;;
12840;SDS011;6487;48.626;12.486;2023-04-03T14:01:41;4.57;;;2.03;;
12840;SDS011;6487;48.626;12.486;2023-04-03T14:04:15;5.47;;;1.90;;
12840;SDS011;6487;48.626;12.486;2023-04-03T14:06:49;4.03;;;1.60;;
12840;SDS011;6487;48.626;12.486;2023-04-03T14:09:18;2.53;;;2.13;;
12840;SDS011;6487;48.626;12.486;2023-04-03T14:11:47;3.47;;;2.17;;
12840;SDS011;6487;48.626;12.486;2023-04-03T14:14:20;2.80;;;2.03;;
12840;SDS011;6487;48.626;12.486;2023-04-03T14:16:53;3.40;;;2.13;;
12840;SDS011;6487;48.626;12.486;2023-04-03T14:19:26;2.20;;;1.70;;
12840;SDS011;6487;48.626;12.486;2023-04-03T14:21:58;3.43;;;2.30;;
12840;SDS011;6487;48.626;12.486;2023-04-03T14:24:28;3.20;;;2.00;;
12840;SDS011;6487;48.626;12.486;2023-04-03T14:26:56;2.60;;;1.60;;
12840;SDS011;6487;48.626;12.486;2023-04-03T14:29:25;5.27;;;1.93;;
12840;SDS011;6487;48.626;12.486;2023-04-03T14:31:53;2.30;;;1.80;;
12840;SDS011;6487;48.626;12.486;2023-04-03T14:34:39;2.10;;;1.50;;
12840;SDS011;6487;48.626;12.486;2023-04-03T14:37:10;2.63;;;1.97;;
12840;SDS011;6487;48.626;12.486;2023-04-03T14:39:41;2.53;;;1.70;;
12840;SDS011;6487;48.626;12.486;2023-04-03T14:42:11;2.77;;;1.90;;
12840;SDS011;6487;48.626;12.486;2023-04-03T14:44:42;5.67;;;2.00;;
12840;SDS011;6487;48.626;12.486;2023-04-03T14:47:11;2.10;;;1.90;;
12840;SDS011;6487;48.626;12.486;2023-04-03T14:49:55;2.53;;;1.90;;
12840;SDS011;6487;48.626;12.486;2023-04-03T14:52:26;2.37;;;1.97;;
12840;SDS011;6487;48.626;12.486;2023-04-03T14:54:57;2.50;;;1.90;;
12840;SDS011;6487;48.626;12.486;2023-04-03T14:57:28;4.87;;;2.03;;
12840;SDS011;6487;48.626;12.486;2023-04-03T14:59:57;3.50;;;2.00;;
12840;SDS011;6487;48.626;12.486;2023-04-03T15:02:33;3.63;;;2.00;;
12840;SDS011;6487;48.626;12.486;2023-04-03T15:05:04;2.47;;;1.70;;
12840;SDS011;6487;48.626;12.486;2023-04-03T15:07:37;2.50;;;1.70;;
12840;SDS011;6487;48.626;12.486;2023-04-03T15:10:14;2.87;;;2.10;;
12840;SDS011;6487;48.626;12.486;2023-04-03T15:12:46;2.73;;;2.40;;
12840;SDS011;6487;48.626;12.486;2023-04-03T15:15:16;4.40;;;3.17;;
12840;SDS011;6487;48.626;12.486;2023-04-03T15:17:47;3.73;;;2.77;;
12840;SDS011;6487;48.626;12.486;2023-04-03T15:20:22;5.10;;;2.30;;
12840;SDS011;6487;48.626;12.486;2023-04-03T15:22:54;2.80;;;1.90;;
12840;SDS011;6487;48.626;12.486;2023-04-03T15:25:23;2.73;;;1.90;;
12840;SDS011;6487;48.626;12.486;2023-04-03T15:27:52;1.93;;;1.63;;
12840;SDS011;6487;48.626;12.486;2023-04-03T15:30:21;3.60;;;2.43;;
12840;SDS011;6487;48.626;12.486;2023-04-03T15:32:49;4.37;;;2.67;;
12840;SDS011;6487;48.626;12.486;2023-04-03T15:35:19;2.40;;;1.87;;
12840;SDS011;6487;48.626;12.486;2023-04-03T15:37:48;2.77;;;1.80;;
12840;SDS011;6487;48.626;12.486;2023-04-03T15:40:19;2.93;;;1.90;;
12840;SDS011;6487;48.626;12.486;2023-04-03T15:42:47;4.23;;;2.37;;
12840;SDS011;6487;48.626;12.486;2023-04-03T15:45:18;2.20;;;2.00;;
12840;SDS011;6487;48.626;12.486;2023-04-03T15:47:47;2.20;;;1.87;;